createdAt,value
2023-03-06T00:04:02.248Z,14.20
2023-03-06T00:09:03.954Z,15.32
2023-03-06T00:14:05.657Z,12.98
2023-03-06T00:19:07.364Z,14.27
2023-03-06T00:24:09.028Z,13.55
2023-03-06T00:29:10.627Z,12.80
2023-03-06T00:34:12.261Z,12.85
2023-03-06T00:39:13.996Z,15.02
2023-03-06T00:44:15.680Z,15.30
2023-03-06T00:49:17.287Z,16.33
2023-03-06T00:54:18.962Z,15.52
2023-03-06T00:59:20.673Z,14.75
2023-03-06T01:04:22.564Z,14.80
2023-03-06T01:09:24.726Z,15.18
2023-03-06T01:14:26.455Z,14.07
2023-03-06T01:19:28.224Z,14.07
2023-03-06T01:24:29.888Z,15.00
2023-03-06T01:29:31.529Z,14.85
2023-03-06T01:34:33.154Z,14.50
2023-03-06T01:39:34.775Z,16.48
2023-03-06T01:44:36.397Z,18.73
2023-03-06T01:49:41.406Z,18.60
2023-03-06T01:54:43.011Z,21.23
2023-03-06T01:59:47.917Z,23.83
2023-03-06T02:04:49.628Z,19.67
2023-03-06T02:09:51.276Z,20.92
2023-03-06T02:14:53.585Z,22.48
2023-03-06T02:20:20.830Z,23.05
2023-03-06T02:25:35.863Z,21.17
2023-03-06T02:30:37.613Z,24.98
2023-03-06T02:35:40.790Z,24.90
2023-03-06T02:40:44.805Z,25.23
2023-03-06T02:45:48.726Z,25.58
2023-03-06T02:50:50.488Z,25.67
2023-03-06T02:55:52.376Z,24.60
2023-03-06T03:00:54.019Z,26.33
2023-03-06T03:05:55.687Z,24.60
2023-03-06T03:10:57.690Z,25.75
2023-03-06T03:16:07.012Z,22.73
2023-03-06T03:21:10.275Z,25.35
2023-03-06T03:26:20.722Z,23.83
2023-03-06T03:31:22.481Z,22.52
2023-03-06T03:36:24.718Z,21.30
2023-03-06T03:41:26.377Z,19.77
2023-03-06T03:46:28.276Z,19.45
2023-03-06T03:51:30.078Z,18.58
2023-03-06T03:56:32.317Z,21.13
2023-03-06T04:01:34.230Z,21.42
2023-03-06T04:06:35.921Z,21.52
2023-03-06T04:11:37.622Z,24.60
2023-03-06T04:16:39.263Z,21.50
2023-03-06T04:21:40.993Z,25.17
2023-03-06T04:26:42.651Z,20.65
2023-03-06T04:31:44.419Z,24.55
2023-03-06T04:36:46.224Z,21.17
2023-03-06T04:41:47.878Z,21.27
2023-03-06T04:46:49.827Z,22.17
2023-03-06T04:51:51.529Z,22.45
2023-03-06T04:56:53.163Z,22.60
2023-03-06T05:01:54.995Z,20.05
2023-03-06T05:06:56.634Z,23.40
2023-03-06T05:11:58.331Z,23.05
2023-03-06T05:17:00.091Z,22.30
2023-03-06T05:22:01.830Z,22.75
2023-03-06T05:27:04.394Z,25.75
2023-03-06T05:32:06.284Z,38.47
2023-03-06T05:37:08.366Z,42.05
2023-03-06T05:42:10.153Z,48.00
2023-03-06T05:47:12.205Z,47.85
2023-03-06T05:52:14.918Z,58.47
2023-03-06T05:57:16.672Z,25.92
2023-03-06T06:02:19.057Z,21.55
2023-03-06T06:07:20.782Z,24.17
2023-03-06T06:12:22.460Z,22.48
2023-03-06T06:17:24.092Z,24.48
2023-03-06T06:22:25.715Z,21.27
2023-03-06T06:27:27.415Z,26.13
2023-03-06T06:32:29.137Z,26.42
2023-03-06T06:37:31.454Z,32.90
2023-03-06T06:42:38.948Z,31.85
2023-03-06T06:47:41.783Z,29.35
2023-03-06T06:52:43.726Z,30.10
2023-03-06T06:57:45.346Z,25.85
2023-03-06T07:02:49.329Z,35.05
2023-03-06T07:07:51.533Z,30.45
2023-03-06T07:12:53.416Z,24.75
2023-03-06T07:17:55.151Z,24.67
2023-03-06T07:22:56.849Z,27.83
2023-03-06T07:27:59.025Z,23.27
2023-03-06T07:33:00.741Z,27.13
2023-03-06T07:38:02.524Z,24.05
2023-03-06T07:43:18.286Z,22.17
2023-03-06T07:48:20.619Z,26.17
2023-03-06T07:53:22.747Z,22.58
2023-03-06T07:58:24.543Z,23.52
2023-03-06T08:03:26.293Z,24.20
2023-03-06T08:08:27.955Z,21.60
2023-03-06T08:13:29.578Z,23.77
2023-03-06T08:18:31.241Z,24.27
2023-03-06T08:23:34.053Z,22.15
2023-03-06T08:28:35.793Z,23.20
2023-03-06T08:33:37.644Z,22.83
2023-03-06T08:38:39.282Z,21.38
2023-03-06T08:43:40.962Z,22.55
2023-03-06T08:48:42.616Z,20.35
2023-03-06T08:53:44.890Z,20.83
2023-03-06T08:58:49.634Z,21.08
2023-03-06T09:03:53.245Z,21.50
2023-03-06T09:08:55.093Z,21.33
2023-03-06T09:13:57.330Z,19.80
2023-03-06T09:18:59.030Z,19.70
2023-03-06T09:24:00.703Z,17.88
2023-03-06T09:29:02.675Z,19.42
2023-03-06T09:34:04.359Z,20.70
2023-03-06T09:39:05.977Z,19.33
2023-03-06T09:44:15.186Z,19.67
2023-03-06T09:49:19.782Z,19.42
2023-03-06T09:54:31.452Z,19.45
2023-03-06T09:59:33.460Z,20.40
2023-03-06T10:04:40.695Z,21.55
2023-03-06T10:09:48.528Z,20.15
2023-03-06T10:15:16.294Z,19.67
2023-03-06T10:20:22.718Z,18.58
2023-03-06T10:25:30.884Z,16.75
2023-03-06T10:30:46.570Z,17.67
2023-03-06T10:35:49.647Z,16.40
2023-03-06T10:41:13.432Z,14.30
2023-03-06T10:46:31.166Z,14.07
2023-03-06T10:51:34.628Z,15.00
2023-03-06T10:56:39.582Z,14.10
2023-03-06T11:01:44.628Z,15.73
2023-03-06T11:06:46.299Z,16.13
2023-03-06T11:11:48.474Z,15.63
2023-03-06T11:16:53.822Z,16.10
2023-03-06T11:22:01.452Z,16.15
2023-03-06T11:27:22.391Z,14.70
2023-03-06T11:32:45.523Z,19.23
2023-03-06T11:37:54.120Z,16.40
2023-03-06T11:43:20.281Z,15.32
2023-03-06T11:48:28.868Z,15.45
2023-03-06T11:53:39.487Z,14.90
2023-03-06T11:59:07.752Z,16.70
2023-03-06T12:04:37.468Z,17.30
2023-03-06T12:09:44.384Z,15.32
2023-03-06T12:14:57.971Z,17.42
2023-03-06T12:20:29.112Z,17.15
2023-03-06T12:25:42.183Z,16.60
2023-03-06T12:31:19.692Z,15.48
2023-03-06T12:36:33.382Z,21.60
2023-03-06T12:41:50.105Z,17.20
2023-03-06T12:46:59.186Z,14.30
2023-03-06T12:52:02.562Z,18.35
2023-03-06T12:57:08.550Z,17.05
2023-03-06T13:02:28.880Z,18.20
2023-03-06T13:07:33.345Z,16.90
2023-03-06T13:12:40.646Z,16.35
2023-03-06T13:17:42.324Z,61.75
2023-03-06T13:22:46.287Z,16.85
2023-03-06T13:28:03.290Z,16.40
2023-03-06T13:33:26.938Z,17.10
2023-03-06T13:38:41.393Z,17.30
2023-03-06T13:43:45.349Z,14.77
2023-03-06T13:49:08.848Z,15.05
2023-03-06T13:54:28.370Z,16.42
2023-03-06T14:00:10.061Z,17.38
2023-03-06T14:05:17.044Z,18.23
2023-03-06T14:10:26.104Z,18.42
2023-03-06T14:15:39.957Z,17.63
2023-03-06T14:20:44.321Z,17.05
2023-03-06T14:25:46.729Z,20.15
2023-03-06T14:30:52.891Z,20.92
2023-03-06T14:35:58.618Z,18.60
2023-03-06T14:41:01.012Z,20.27
2023-03-06T14:46:06.500Z,21.00
2023-03-06T14:51:14.580Z,20.10
2023-03-06T14:56:22.113Z,24.45
2023-03-06T15:01:33.075Z,20.33
2023-03-06T15:06:43.622Z,20.02
2023-03-06T15:11:55.217Z,19.58
2023-03-06T15:16:56.908Z,18.80
2023-03-06T15:21:58.770Z,17.75
2023-03-06T15:27:16.453Z,19.38
2023-03-06T15:32:31.498Z,32.25
2023-03-06T15:37:34.308Z,22.75
2023-03-06T15:42:36.737Z,20.55
2023-03-06T15:47:38.999Z,18.48
2023-03-06T15:52:40.685Z,18.58
2023-03-06T15:57:51.334Z,18.17
2023-03-06T16:02:53.435Z,17.27
2023-03-06T16:07:55.702Z,17.88
2023-03-06T16:13:03.122Z,15.60
2023-03-06T16:18:06.257Z,16.63
2023-03-06T16:23:10.577Z,16.27
2023-03-06T16:28:14.724Z,16.73
2023-03-06T16:33:16.435Z,16.73
2023-03-06T16:38:18.074Z,20.10
2023-03-06T16:43:19.724Z,17.48
2023-03-06T16:48:21.374Z,19.65
2023-03-06T16:53:23.000Z,17.50
2023-03-06T16:58:24.735Z,17.58
2023-03-06T17:03:26.430Z,18.50
2023-03-06T17:08:28.146Z,16.65
2023-03-06T17:13:29.872Z,17.65
2023-03-06T17:18:31.876Z,15.95
2023-03-06T17:23:33.523Z,16.98
2023-03-06T17:28:36.877Z,17.13
2023-03-06T17:33:38.543Z,18.02
2023-03-06T17:38:40.656Z,20.02
2023-03-06T17:43:42.351Z,28.10
2023-03-06T17:48:44.684Z,19.55
2023-03-06T17:53:46.327Z,21.35
2023-03-06T17:58:47.943Z,33.85
2023-03-06T18:03:51.565Z,38.22
2023-03-06T18:08:54.040Z,54.90
2023-03-06T18:13:55.721Z,20.67
2023-03-06T18:18:57.723Z,17.90
2023-03-06T18:23:59.472Z,18.50
2023-03-06T18:29:04.461Z,17.75
2023-03-06T18:34:13.428Z,18.20
2023-03-06T18:39:15.825Z,21.30
2023-03-06T18:44:17.723Z,18.58
2023-03-06T18:49:19.439Z,18.35
2023-03-06T18:54:21.067Z,17.38
2023-03-06T18:59:22.738Z,19.35
2023-03-06T19:04:26.232Z,22.45
2023-03-06T19:09:27.972Z,19.52
2023-03-06T19:14:29.935Z,21.45
2023-03-06T19:19:32.406Z,22.30
2023-03-06T19:24:34.870Z,21.33
2023-03-06T19:29:39.409Z,20.00
2023-03-06T19:34:41.067Z,21.48
2023-03-06T19:39:43.236Z,22.35
2023-03-06T19:44:44.996Z,21.65
2023-03-06T19:49:46.608Z,21.83
2023-03-06T19:54:48.464Z,26.10
2023-03-06T19:59:51.482Z,39.72
2023-03-06T20:04:55.968Z,21.02
2023-03-06T20:10:00.759Z,25.38
2023-03-06T20:15:02.491Z,22.05
2023-03-06T20:20:04.391Z,21.10
2023-03-06T20:25:06.292Z,20.90
2023-03-06T20:30:08.758Z,21.08
2023-03-06T20:35:10.431Z,22.02
2023-03-06T20:40:12.483Z,22.48
2023-03-06T20:45:15.553Z,23.60
2023-03-06T20:50:17.249Z,22.58
2023-03-06T20:55:18.989Z,22.70
2023-03-06T21:00:21.124Z,25.33
2023-03-06T21:05:23.059Z,24.02
2023-03-06T21:10:24.823Z,22.05
2023-03-06T21:15:29.968Z,22.45
2023-03-06T21:20:31.840Z,25.25
2023-03-06T21:25:33.655Z,23.98
2023-03-06T21:30:35.298Z,24.23
2023-03-06T21:35:38.290Z,25.90
2023-03-06T21:40:40.002Z,24.58
2023-03-06T21:45:46.144Z,23.40
2023-03-06T21:50:47.957Z,26.20
2023-03-06T21:55:49.594Z,28.08
2023-03-06T22:00:51.328Z,27.25
2023-03-06T22:05:53.283Z,25.55
2023-03-06T22:10:54.928Z,28.17
2023-03-06T22:15:56.872Z,26.13
2023-03-06T22:20:58.654Z,24.60
2023-03-06T22:26:05.322Z,27.15
2023-03-06T22:31:12.095Z,26.80
2023-03-06T22:36:15.561Z,27.05
2023-03-06T22:41:18.131Z,29.23
2023-03-06T22:46:19.845Z,28.80
2023-03-06T22:51:21.728Z,28.48
2023-03-06T22:56:23.944Z,32.97
2023-03-06T23:01:30.985Z,35.13
2023-03-06T23:06:35.588Z,36.03
2023-03-06T23:11:37.197Z,36.55
2023-03-06T23:16:39.206Z,37.35
2023-03-06T23:21:41.930Z,37.15
2023-03-06T23:26:43.728Z,40.80
2023-03-06T23:31:45.336Z,36.13
2023-03-06T23:36:46.996Z,38.20
2023-03-06T23:41:48.582Z,33.63
2023-03-06T23:46:50.280Z,32.70
2023-03-06T23:51:51.959Z,35.45
2023-03-06T23:56:53.629Z,35.78
